Time;durP1;ratioP1;P1;durP2;ratioP2;P2;SDS_P1;SDS_P2;PMS_P1;PMS_P2;Temp;Humidity;BMP_temperature;BMP_pressure;BME280_temperature;BME280_humidity;BME280_pressure;Samples;Min_cycle;Max_cycle;Signal;HPM_P1;HPM_P2
2021/06/27 00:00:12;;;;;;;8.05;6.05;;;;;;;19.64;74.02;96744.81;5095241;28;20169;-58
2021/06/27 00:02:37;;;;;;;7.22;5.90;;;;;;;19.75;73.58;96756.91;5110676;28;20191;-58
2021/06/27 00:05:06;;;;;;;6.20;5.47;;;;;;;19.73;73.60;96753.72;5103139;28;20211;-59
2021/06/27 00:07:31;;;;;;;6.88;6.18;;;;;;;19.76;73.55;96763.81;5097395;28;20215;-58
2021/06/27 00:09:57;;;;;;;6.23;5.63;;;;;;;19.75;73.50;96756.91;5107838;28;20267;-59
2021/06/27 00:12:22;;;;;;;7.05;5.55;;;;;;;19.68;73.78;96751.94;5099318;28;20181;-59
2021/06/27 00:14:48;;;;;;;6.18;5.47;;;;;;;19.69;73.76;96758.84;5099272;28;20180;-59
2021/06/27 00:17:13;;;;;;;5.72;5.15;;;;;;;19.63;74.10;96756.53;5101358;28;20173;-59
2021/06/27 00:19:38;;;;;;;6.43;5.55;;;;;;;19.62;73.94;96754.94;5098873;28;20212;-59
2021/06/27 00:22:04;;;;;;;6.05;5.47;;;;;;;19.60;74.09;96762.44;5091950;28;20183;-58
2021/06/27 00:24:29;;;;;;;6.47;5.45;;;;;;;19.64;73.74;96760.78;5099018;28;20192;-58
2021/06/27 00:26:55;;;;;;;5.38;4.88;;;;;;;19.62;73.24;96760.25;5099568;28;20183;-58
2021/06/27 00:29:20;;;;;;;5.50;5.00;;;;;;;19.48;73.15;96760.16;5092640;28;20187;-57
2021/06/27 00:31:45;;;;;;;5.80;5.15;;;;;;;19.57;72.93;96758.47;5103088;28;20176;-57
2021/06/27 00:34:11;;;;;;;5.43;4.93;;;;;;;19.58;73.09;96759.25;5092821;28;20614;-58
2021/06/27 00:36:36;;;;;;;6.15;5.15;;;;;;;19.59;73.40;96758.19;5091831;28;20287;-57
2021/06/27 00:39:03;;;;;;;5.50;5.00;;;;;;;19.60;73.24;96757.09;5100181;28;20232;-59
2021/06/27 00:41:28;;;;;;;5.93;5.32;;;;;;;19.55;73.02;96746.53;5095292;28;20190;-58
2021/06/27 00:43:54;;;;;;;4.97;4.57;;;;;;;19.46;72.89;96743.69;5109500;28;20267;-58
2021/06/27 00:46:19;;;;;;;5.53;5.03;;;;;;;19.37;73.08;96743.50;5105005;28;21078;-59
2021/06/27 00:48:45;;;;;;;5.10;4.50;;;;;;;19.38;72.76;96742.44;5110155;28;20287;-57
2021/06/27 00:51:10;;;;;;;6.15;4.50;;;;;;;19.38;72.76;96747.75;5109943;28;20673;-57
2021/06/27 00:53:36;;;;;;;5.17;4.63;;;;;;;19.35;72.80;96756.28;5107407;28;20780;-59
2021/06/27 00:56:01;;;;;;;5.27;4.77;;;;;;;19.38;72.77;96750.41;5089653;28;20169;-59
2021/06/27 00:58:31;;;;;;;5.03;4.53;;;;;;;19.37;72.49;96748.84;5105725;28;20200;-59
2021/06/27 01:00:57;;;;;;;5.60;4.57;;;;;;;19.31;72.55;96741.19;5107700;28;20183;-60
2021/06/27 01:03:23;;;;;;;4.45;3.88;;;;;;;19.33;72.04;96755.00;5109877;28;20192;-60
2021/06/27 01:05:49;;;;;;;4.47;3.77;;;;;;;19.26;71.24;96747.34;5096982;28;20188;-59
2021/06/27 01:08:15;;;;;;;4.40;4.00;;;;;;;19.24;70.50;96751.34;5094730;28;20196;-59
2021/06/27 01:10:41;;;;;;;4.50;4.10;;;;;;;19.21;70.90;96752.72;5104166;28;20187;-59
2021/06/27 01:13:07;;;;;;;4.90;4.50;;;;;;;19.17;71.18;96757.00;5101704;28;20234;-59
2021/06/27 01:15:33;;;;;;;4.60;4.20;;;;;;;19.16;71.45;96757.31;5109869;28;20180;-57
2021/06/27 01:17:59;;;;;;;4.90;4.50;;;;;;;19.17;71.88;96754.34;5093312;28;20204;-58
2021/06/27 01:20:28;;;;;;;5.28;4.80;;;;;;;19.18;72.13;96758.59;5106989;28;20633;-57
2021/06/27 01:22:54;;;;;;;5.60;5.10;;;;;;;19.21;72.01;96762.56;5102273;28;20188;-58
2021/06/27 01:25:23;;;;;;;5.88;5.28;;;;;;;19.18;72.35;96758.59;5094672;28;20188;-59
2021/06/27 01:27:49;;;;;;;5.35;4.85;;;;;;;19.19;72.29;96754.88;5102676;28;20262;-57
2021/06/27 01:30:15;;;;;;;5.10;4.65;;;;;;;19.16;72.59;96760.75;5111316;28;20653;-58
2021/06/27 01:32:45;;;;;;;5.87;5.13;;;;;;;19.20;72.57;96753.00;5094860;28;20173;-59
2021/06/27 01:35:13;;;;;;;5.63;5.13;;;;;;;19.21;72.30;96771.34;5109993;28;20241;-59
2021/06/27 01:37:47;;;;;;;5.40;4.90;;;;;;;19.28;72.08;96763.78;5100248;28;20673;-59
2021/06/27 01:40:16;;;;;;;5.93;5.33;;;;;;;19.18;72.67;96763.91;5103940;28;20224;-59
2021/06/27 01:42:42;;;;;;;5.70;5.20;;;;;;;19.24;72.64;96768.09;5104435;28;20183;-59
2021/06/27 01:45:21;;;;;;;6.10;5.50;;;;;;;19.21;72.56;96766.03;5103112;28;20180;-59
2021/06/27 01:48:03;;;;;;;5.43;4.57;;;;;;;19.24;71.80;96762.00;5096038;28;20221;-59
2021/06/27 01:50:29;;;;;;;6.53;4.47;;;;;;;19.22;71.56;96766.81;5096529;28;20191;-59
2021/06/27 01:52:56;;;;;;;5.18;4.68;;;;;;;19.13;71.56;96756.00;5103425;28;20267;-59
2021/06/27 01:55:23;;;;;;;5.10;4.63;;;;;;;19.02;71.43;96751.84;5095246;28;20584;-59
2021/06/27 01:57:49;;;;;;;4.43;4.03;;;;;;;19.13;70.87;96755.19;5092692;28;20192;-59
2021/06/27 02:00:15;;;;;;;4.85;4.45;;;;;;;19.11;71.11;96750.19;5104688;28;20207;-59
2021/06/27 02:02:40;;;;;;;5.53;3.93;;;;;;;18.99;71.11;96747.91;5091452;28;20700;-59
2021/06/27 02:05:07;;;;;;;4.78;4.30;;;;;;;19.05;71.09;96749.44;5100083;28;20179;-59
2021/06/27 02:07:36;;;;;;;4.93;4.53;;;;;;;19.14;70.57;96752.28;5099611;28;20653;-59
2021/06/27 02:10:03;;;;;;;5.13;3.80;;;;;;;19.08;70.46;96748.06;5110672;28;20183;-59
2021/06/27 02:12:32;;;;;;;4.53;4.07;;;;;;;19.03;70.42;96756.09;5104759;28;20183;-59
2021/06/27 02:14:57;;;;;;;3.97;3.67;;;;;;;18.96;70.39;96751.09;5095089;28;20682;-60
2021/06/27 02:17:23;;;;;;;4.32;3.92;;;;;;;18.94;70.38;96750.63;5101253;28;20185;-60
2021/06/27 02:19:54;;;;;;;4.13;3.73;;;;;;;18.94;70.92;96752.47;5101073;28;20195;-60
2021/06/27 02:22:21;;;;;;;8.23;4.33;;;;;;;19.02;70.49;96757.97;5101787;28;20298;-61
2021/06/27 02:24:47;;;;;;;4.60;4.20;;;;;;;18.90;70.68;96751.44;5109485;28;20270;-60
2021/06/27 02:27:13;;;;;;;4.67;4.27;;;;;;;18.96;70.79;96747.66;5110596;28;20312;-59
2021/06/27 02:29:38;;;;;;;4.77;4.37;;;;;;;18.94;70.90;96750.63;5098733;28;20841;-59
2021/06/27 02:32:05;;;;;;;4.63;4.23;;;;;;;18.93;70.69;96745.56;5103561;28;20224;-60
2021/06/27 02:34:30;;;;;;;4.40;4.00;;;;;;;18.87;70.71;96736.06;5104393;28;20179;-59
2021/06/27 02:36:56;;;;;;;5.00;4.17;;;;;;;18.78;71.28;96727.91;5104560;28;20184;-60
2021/06/27 02:39:21;;;;;;;4.40;4.00;;;;;;;18.73;71.08;96716.53;5101166;28;20827;-61
2021/06/27 02:41:47;;;;;;;4.30;3.90;;;;;;;18.44;72.29;96716.50;5101392;28;20184;-59
2021/06/27 02:44:12;;;;;;;4.00;3.70;;;;;;;18.14;73.04;96722.84;5110135;28;20437;-58
2021/06/27 02:46:38;;;;;;;4.47;4.07;;;;;;;18.04;73.57;96720.25;5091129;28;20207;-58
2021/06/27 02:49:03;;;;;;;4.63;4.23;;;;;;;18.33;73.25;96715.00;5102260;28;20227;-59
2021/06/27 02:51:29;;;;;;;4.30;3.90;;;;;;;18.48;72.55;96718.31;5104250;28;20540;-58
2021/06/27 02:53:54;;;;;;;4.80;4.40;;;;;;;18.55;72.08;96718.84;5105243;28;20263;-59
2021/06/27 02:56:20;;;;;;;5.47;4.67;;;;;;;18.60;71.76;96718.00;5098528;28;20636;-61
2021/06/27 02:58:49;;;;;;;4.40;4.00;;;;;;;18.32;72.76;96714.22;5098372;28;20196;-59
2021/06/27 03:01:16;;;;;;;4.30;3.90;;;;;;;17.94;74.59;96715.00;5101017;28;20215;-59
2021/06/27 03:03:43;;;;;;;4.30;3.90;;;;;;;17.96;74.92;96707.56;5105617;28;20180;-58
2021/06/27 03:06:11;;;;;;;5.00;4.10;;;;;;;17.93;75.03;96698.31;5109667;28;20665;-59
2021/06/27 03:08:37;;;;;;;4.20;3.70;;;;;;;18.32;73.64;96700.94;5090875;28;20189;-59
2021/06/27 03:11:04;;;;;;;4.87;4.37;;;;;;;18.22;73.90;96698.38;5100827;28;20641;-58
2021/06/27 03:13:33;;;;;;;3.77;3.47;;;;;;;18.11;74.59;96704.81;5100236;28;20184;-59
2021/06/27 03:15:59;;;;;;;3.93;3.63;;;;;;;18.20;73.82;96697.84;5101093;28;20192;-58
2021/06/27 03:18:24;;;;;;;4.57;4.17;;;;;;;18.22;73.69;96695.72;5103185;28;20199;-58
2021/06/27 03:20:50;;;;;;;4.13;3.77;;;;;;;18.39;72.78;96687.38;5074804;28;20226;-57
2021/06/27 03:23:15;;;;;;;4.00;3.60;;;;;;;18.49;72.52;96687.28;5101267;28;20207;-58
2021/06/27 03:25:41;;;;;;;5.17;4.00;;;;;;;18.49;72.33;96681.97;5106780;28;20399;-59
2021/06/27 03:28:07;;;;;;;3.90;3.60;;;;;;;18.46;72.25;96688.59;5096021;28;20184;-59
2021/06/27 03:30:32;;;;;;;3.87;3.57;;;;;;;18.60;71.64;96684.28;5106715;28;20180;-58
2021/06/27 03:32:58;;;;;;;4.17;3.80;;;;;;;18.69;71.57;96676.47;5100502;28;20194;-57
2021/06/27 03:35:24;;;;;;;3.73;3.43;;;;;;;18.79;71.12;96684.34;5104060;28;20184;-60
2021/06/27 03:37:56;;;;;;;3.63;3.33;;;;;;;18.94;70.45;96678.91;5103747;28;20224;-57
2021/06/27 03:40:22;;;;;;;3.80;3.50;;;;;;;18.83;70.73;96674.75;5092596;28;20168;-60
2021/06/27 03:42:48;;;;;;;4.73;4.33;;;;;;;18.94;70.56;96664.81;5098024;28;20240;-59
2021/06/27 03:45:15;;;;;;;3.60;3.30;;;;;;;18.65;71.70;96665.66;5102977;28;20192;-58
2021/06/27 03:47:42;;;;;;;3.93;3.53;;;;;;;18.84;70.88;96657.72;5089753;28;20263;-58
2021/06/27 03:50:08;;;;;;;3.33;3.10;;;;;;;18.98;70.46;96649.88;5108711;28;20196;-57
2021/06/27 03:52:34;;;;;;;3.67;3.20;;;;;;;19.10;70.04;96659.06;5093203;28;20175;-59
2021/06/27 03:54:59;;;;;;;4.53;3.80;;;;;;;19.09;70.26;96657.47;5103103;28;20579;-59
2021/06/27 03:57:24;;;;;;;4.00;3.60;;;;;;;19.46;68.79;96653.31;5102249;28;20183;-59
2021/06/27 03:59:50;;;;;;;5.30;3.80;;;;;;;19.54;68.64;96649.22;5096577;28;20196;-58
2021/06/27 04:02:15;;;;;;;3.55;3.25;;;;;;;19.26;69.29;96650.88;5094073;28;20204;-58
2021/06/27 04:04:40;;;;;;;3.60;3.30;;;;;;;19.29;69.13;96658.28;5098853;28;20826;-58
2021/06/27 04:07:06;;;;;;;3.70;3.40;;;;;;;19.26;69.13;96669.50;5103647;28;20187;-58
2021/06/27 04:09:31;;;;;;;4.33;3.93;;;;;;;19.37;68.90;96684.25;5097425;28;20188;-59
2021/06/27 04:11:57;;;;;;;3.55;3.30;;;;;;;19.32;68.57;96687.75;5094101;28;20180;-59
2021/06/27 04:14:22;;;;;;;3.40;3.10;;;;;;;19.48;68.37;96694.50;5102978;28;20264;-60
2021/06/27 04:16:47;;;;;;;3.93;3.63;;;;;;;19.67;67.72;96697.16;5108517;28;20308;-57
2021/06/27 04:19:13;;;;;;;3.50;3.20;;;;;;;19.67;67.99;96694.50;5106031;28;20200;-59
2021/06/27 04:21:38;;;;;;;3.90;3.47;;;;;;;19.71;68.14;96700.84;5103590;28;20254;-58
2021/06/27 04:24:04;;;;;;;4.70;3.77;;;;;;;19.54;68.99;96699.75;5092910;28;20334;-58
2021/06/27 04:26:30;;;;;;;3.90;3.60;;;;;;;19.52;69.25;96697.38;5099202;28;20188;-59
2021/06/27 04:28:55;;;;;;;3.90;3.57;;;;;;;19.62;68.89;96685.78;5107798;28;20690;-59
2021/06/27 04:31:21;;;;;;;3.80;3.50;;;;;;;19.80;68.27;96699.13;5094804;28;20263;-61
2021/06/27 04:33:46;;;;;;;4.35;3.95;;;;;;;19.86;68.25;96695.31;5089683;28;20272;-58
2021/06/27 04:36:12;;;;;;;4.23;3.83;;;;;;;19.76;68.97;96705.31;5093301;28;20192;-58
2021/06/27 04:38:38;;;;;;;4.40;4.00;;;;;;;19.81;68.95;96699.91;5096329;28;20665;-58
2021/06/27 04:41:03;;;;;;;3.97;3.58;;;;;;;19.89;68.41;96710.69;5100262;28;20173;-57
2021/06/27 04:43:28;;;;;;;4.38;3.65;;;;;;;19.75;68.93;96711.69;5106050;28;20237;-58
2021/06/27 04:45:54;;;;;;;4.40;4.00;;;;;;;19.86;68.46;96718.47;5099990;28;20664;-58
2021/06/27 04:48:19;;;;;;;5.03;3.80;;;;;;;20.06;67.94;96714.75;5092276;28;20207;-59
2021/06/27 04:50:46;;;;;;;4.07;3.60;;;;;;;20.18;67.27;96713.19;5072213;28;20259;-58
2021/06/27 04:53:13;;;;;;;3.97;3.58;;;;;;;20.34;67.24;96711.91;5106272;28;20183;-59
2021/06/27 04:55:39;;;;;;;4.30;3.90;;;;;;;20.49;66.29;96705.56;5108097;28;20180;-58
2021/06/27 04:58:05;;;;;;;4.05;3.65;;;;;;;20.63;66.03;96706.38;5093602;28;20219;-59
2021/06/27 05:00:31;;;;;;;4.05;3.70;;;;;;;20.69;66.18;96696.44;5095642;28;20188;-59
2021/06/27 05:02:56;;;;;;;4.30;3.90;;;;;;;20.51;66.64;96697.28;5110576;28;20532;-59
2021/06/27 05:05:21;;;;;;;3.72;3.42;;;;;;;20.62;66.09;96699.47;5107752;28;20241;-60
2021/06/27 05:07:47;;;;;;;4.55;4.15;;;;;;;20.75;65.66;96687.28;5110013;28;20228;-58
2021/06/27 05:10:13;;;;;;;4.53;3.30;;;;;;;20.86;65.34;96690.53;5111055;28;20519;-57
2021/06/27 05:12:38;;;;;;;3.97;3.40;;;;;;;20.88;65.26;96680.38;5092333;28;20173;-58
2021/06/27 05:15:04;;;;;;;3.58;3.28;;;;;;;20.97;64.96;96682.06;5111373;28;20240;-59
2021/06/27 05:17:30;;;;;;;3.90;3.60;;;;;;;21.10;64.47;96680.50;5092629;28;20189;-60
2021/06/27 05:19:55;;;;;;;3.55;3.25;;;;;;;20.82;64.81;96673.56;5097165;28;20532;-59
2021/06/27 05:22:20;;;;;;;4.10;3.60;;;;;;;20.70;64.65;96676.72;5104648;28;20230;-58
2021/06/27 05:24:46;;;;;;;3.92;3.55;;;;;;;20.84;64.31;96674.88;5092685;28;20216;-58
2021/06/27 05:27:11;;;;;;;4.10;3.80;;;;;;;20.87;64.47;96668.16;5094616;28;20673;-60
2021/06/27 05:29:36;;;;;;;4.05;3.67;;;;;;;21.05;63.54;96670.72;5103824;28;20185;-58
2021/06/27 05:32:02;;;;;;;3.10;2.90;;;;;;;21.18;63.14;96671.06;5092926;28;20273;-58
2021/06/27 05:34:29;;;;;;;3.17;2.97;;;;;;;21.54;62.35;96670.03;5100728;28;20197;-59
2021/06/27 05:36:56;;;;;;;3.38;3.10;;;;;;;21.80;61.12;96666.78;5092873;28;20222;-60
2021/06/27 05:39:21;;;;;;;3.40;3.10;;;;;;;22.23;59.82;96673.31;5110797;28;20224;-59
2021/06/27 05:41:47;;;;;;;3.55;3.28;;;;;;;22.29;59.43;96666.72;5095650;28;20551;-60
2021/06/27 05:44:12;;;;;;;3.28;2.90;;;;;;;22.57;59.03;96669.28;5104103;28;20193;-60
2021/06/27 05:46:38;;;;;;;3.33;3.13;;;;;;;22.68;58.63;96667.94;5102080;28;20187;-60
2021/06/27 05:49:05;;;;;;;3.67;3.38;;;;;;;22.83;58.39;96669.44;5111080;28;20582;-59
2021/06/27 05:51:30;;;;;;;3.47;3.00;;;;;;;22.95;58.17;96672.34;5094644;28;20189;-59
2021/06/27 05:53:56;;;;;;;3.13;2.92;;;;;;;23.03;57.38;96674.25;5098976;28;20191;-58
2021/06/27 05:56:21;;;;;;;3.50;3.20;;;;;;;23.17;57.11;96678.41;5099023;28;20199;-59
2021/06/27 05:58:47;;;;;;;3.50;3.20;;;;;;;23.18;56.93;96676.50;5100427;28;20204;-59
2021/06/27 06:01:16;;;;;;;3.10;2.80;;;;;;;23.15;57.96;96674.44;5109866;28;20203;-61
2021/06/27 06:03:42;;;;;;;3.30;3.00;;;;;;;23.60;57.42;96670.50;5099818;28;20238;-61
2021/06/27 06:06:10;;;;;;;3.30;3.10;;;;;;;23.67;56.31;96674.59;5093582;28;20180;-60
2021/06/27 06:08:40;;;;;;;2.80;2.60;;;;;;;23.59;56.99;96676.16;5091282;28;20185;-61
2021/06/27 06:11:09;;;;;;;2.70;2.50;;;;;;;23.43;56.75;96670.44;5096845;28;20177;-60
2021/06/27 06:13:35;;;;;;;3.85;3.47;;;;;;;23.70;56.04;96679.31;5102014;28;20180;-62
2021/06/27 06:16:02;;;;;;;3.15;2.95;;;;;;;23.72;56.27;96675.25;5098757;28;20270;-61
2021/06/27 06:18:27;;;;;;;3.28;2.97;;;;;;;23.82;55.31;96669.59;5097236;28;20192;-63
2021/06/27 06:20:52;;;;;;;5.75;3.55;;;;;;;23.98;55.20;96672.56;5101388;28;20667;-63
2021/06/27 06:23:18;;;;;;;3.25;3.03;;;;;;;24.11;54.57;96679.69;5101773;28;20181;-61
2021/06/27 06:25:43;;;;;;;3.00;2.80;;;;;;;24.02;55.30;96674.31;5106141;28;21047;-61
2021/06/27 06:28:09;;;;;;;2.95;2.75;;;;;;;24.21;55.14;96675.91;5097174;28;20341;-62
2021/06/27 06:30:34;;;;;;;2.95;2.75;;;;;;;24.53;54.13;96678.06;5107918;28;20189;-61
2021/06/27 06:32:59;;;;;;;3.03;2.83;;;;;;;24.69;53.80;96676.44;5102845;28;20180;-61
2021/06/27 06:35:25;;;;;;;3.33;3.03;;;;;;;24.63;53.90;96672.38;5113736;28;20211;-61
2021/06/27 06:37:50;;;;;;;2.80;2.60;;;;;;;24.85;53.15;96674.81;5091345;28;20380;-61
2021/06/27 06:40:16;;;;;;;3.30;3.00;;;;;;;25.18;52.22;96668.91;5110113;28;20779;-61
2021/06/27 06:42:41;;;;;;;3.13;2.92;;;;;;;25.70;50.94;96665.94;5098886;28;20237;-61
2021/06/27 06:45:07;;;;;;;4.53;3.13;;;;;;;25.95;50.34;96670.34;5103461;28;20567;-62
2021/06/27 06:47:32;;;;;;;3.13;2.92;;;;;;;25.80;50.12;96662.88;5106382;28;20184;-62
2021/06/27 06:49:58;;;;;;;3.17;2.97;;;;;;;25.93;49.19;96664.50;5111241;28;20187;-62
2021/06/27 06:52:23;;;;;;;3.08;2.80;;;;;;;25.78;49.99;96659.72;5097324;28;20252;-61
2021/06/27 06:54:49;;;;;;;2.97;2.50;;;;;;;25.83;49.81;96654.94;5091149;28;20189;-60
2021/06/27 06:57:15;;;;;;;3.15;2.95;;;;;;;25.92;50.14;96649.50;5104128;28;20198;-62
2021/06/27 06:59:41;;;;;;;3.33;3.03;;;;;;;26.01;49.76;96653.72;5098674;28;20647;-62
2021/06/27 07:02:07;;;;;;;5.15;2.70;;;;;;;25.57;50.77;96660.50;5098813;28;20600;-62
2021/06/27 07:04:32;;;;;;;3.13;2.92;;;;;;;25.44;51.20;96650.75;5100618;28;20266;-61
2021/06/27 07:06:58;;;;;;;3.65;2.83;;;;;;;25.13;51.84;96658.38;5106218;28;20275;-61
2021/06/27 07:09:23;;;;;;;3.25;3.03;;;;;;;25.27;51.95;96650.84;5097611;28;20188;-61
2021/06/27 07:11:49;;;;;;;3.05;2.85;;;;;;;25.23;52.18;96658.78;5107354;28;20758;-63
2021/06/27 07:14:14;;;;;;;3.33;3.13;;;;;;;25.38;51.58;96670.06;5105223;28;20196;-63
2021/06/27 07:16:39;;;;;;;7.22;3.28;;;;;;;25.42;51.46;96660.25;5076516;28;20275;-62
2021/06/27 07:19:05;;;;;;;3.13;2.92;;;;;;;25.21;51.68;96655.63;5090879;28;20203;-62
2021/06/27 07:21:30;;;;;;;3.10;2.90;;;;;;;25.49;50.84;96652.47;5091734;28;20184;-62
2021/06/27 07:23:56;;;;;;;3.13;2.88;;;;;;;25.06;52.13;96658.06;5090618;28;20267;-60
2021/06/27 07:26:23;;;;;;;3.22;2.92;;;;;;;25.28;52.05;96649.75;5092147;28;20250;-60
2021/06/27 07:28:48;;;;;;;2.80;2.60;;;;;;;25.67;51.51;96662.03;5087695;28;20184;-61
2021/06/27 07:31:14;;;;;;;3.25;3.00;;;;;;;25.72;50.77;96658.34;5094219;28;20185;-60
2021/06/27 07:33:39;;;;;;;3.00;2.80;;;;;;;26.14;50.15;96659.16;5088124;28;20226;-61
2021/06/27 07:36:05;;;;;;;3.40;3.10;;;;;;;26.16;49.81;96662.28;5091576;28;20208;-60
2021/06/27 07:38:31;;;;;;;3.10;2.90;;;;;;;26.08;50.34;96655.88;5109075;28;20223;-62
2021/06/27 07:40:56;;;;;;;2.95;2.75;;;;;;;25.97;50.33;96662.75;5098221;28;20526;-60
2021/06/27 07:43:21;;;;;;;2.95;2.75;;;;;;;25.72;51.28;96656.47;5112666;28;20194;-60
2021/06/27 07:45:47;;;;;;;2.92;2.72;;;;;;;25.60;50.91;96651.00;5108206;28;20184;-60
2021/06/27 07:48:13;;;;;;;3.33;3.03;;;;;;;24.63;53.31;96650.91;5112554;28;20188;-59
2021/06/27 07:50:38;;;;;;;3.65;3.00;;;;;;;24.50;54.13;96649.25;5097880;28;20169;-60
2021/06/27 07:53:04;;;;;;;3.38;3.08;;;;;;;24.43;53.70;96655.09;5107266;28;20493;-60
2021/06/27 07:55:29;;;;;;;3.05;2.85;;;;;;;24.61;54.46;96652.38;5099253;28;20208;-62
2021/06/27 07:57:55;;;;;;;3.20;3.00;;;;;;;24.50;54.12;96646.56;5100357;28;20181;-62
2021/06/27 08:00:21;;;;;;;3.45;3.13;;;;;;;24.12;56.26;96651.78;5106258;28;20184;-59
2021/06/27 08:02:48;;;;;;;3.20;3.00;;;;;;;24.14;56.07;96646.88;5076563;28;20181;-60
2021/06/27 08:05:13;;;;;;;4.38;3.10;;;;;;;24.61;55.66;96644.31;5090399;28;20596;-60
2021/06/27 08:07:39;;;;;;;3.25;2.95;;;;;;;24.79;55.12;96643.16;5100332;28;20191;-60
2021/06/27 08:10:06;;;;;;;3.22;2.95;;;;;;;24.52;54.99;96640.88;5098993;28;20184;-60
2021/06/27 08:12:32;;;;;;;3.55;3.17;;;;;;;24.72;55.14;96642.88;5100378;28;20207;-62
2021/06/27 08:14:57;;;;;;;3.40;3.10;;;;;;;24.81;53.49;96636.34;5070763;28;20186;-60
2021/06/27 08:17:23;;;;;;;3.15;2.88;;;;;;;24.72;55.11;96632.16;5100828;28;20603;-60
2021/06/27 08:19:48;;;;;;;3.47;2.95;;;;;;;24.77;54.07;96637.31;5096325;28;20200;-60
2021/06/27 08:22:14;;;;;;;3.90;3.22;;;;;;;24.73;54.00;96639.88;5108292;28;20183;-60
2021/06/27 08:24:40;;;;;;;2.85;2.65;;;;;;;25.05;54.87;96643.88;5091290;28;20656;-60
2021/06/27 08:27:06;;;;;;;3.22;3.00;;;;;;;25.50;52.79;96646.78;5093522;28;20190;-60
2021/06/27 08:29:32;;;;;;;3.40;3.10;;;;;;;25.54;53.11;96646.91;5105850;28;20177;-63
2021/06/27 08:31:57;;;;;;;4.03;2.97;;;;;;;25.40;52.31;96643.69;5104645;28;20675;-61
2021/06/27 08:34:23;;;;;;;3.13;2.83;;;;;;;25.18;53.37;96644.75;5092946;28;20258;-60
2021/06/27 08:36:48;;;;;;;3.83;2.60;;;;;;;25.38;52.17;96638.66;5093863;28;20184;-60
2021/06/27 08:39:14;;;;;;;3.15;2.88;;;;;;;25.56;52.58;96642.81;5104707;28;20232;-60
2021/06/27 08:41:41;;;;;;;2.97;2.78;;;;;;;25.37;51.75;96641.66;5096411;28;20231;-61
2021/06/27 08:44:07;;;;;;;3.95;2.85;;;;;;;24.93;53.37;96635.72;5108746;28;20211;-60
2021/06/27 08:46:36;;;;;;;3.13;2.83;;;;;;;24.61;54.33;96642.44;5095164;28;20172;-62
2021/06/27 08:49:02;;;;;;;3.00;2.80;;;;;;;25.03;53.45;96634.56;5109982;28;20188;-60
2021/06/27 08:51:34;;;;;;;2.80;2.60;;;;;;;25.21;54.06;96631.47;5098582;28;20188;-60
2021/06/27 08:54:00;;;;;;;3.33;3.03;;;;;;;25.11;53.06;96633.75;5097866;28;20195;-60
2021/06/27 08:56:25;;;;;;;3.00;2.80;;;;;;;25.11;53.12;96625.69;5092765;28;20266;-60
2021/06/27 08:58:51;;;;;;;3.00;2.80;;;;;;;24.70;53.97;96627.09;5110334;28;20238;-60
2021/06/27 09:01:19;;;;;;;6.05;2.83;;;;;;;24.94;52.98;96631.13;5092444;28;20187;-60
2021/06/27 09:03:46;;;;;;;2.67;2.47;;;;;;;25.05;53.26;96622.41;5093869;28;20720;-59
2021/06/27 09:06:21;;;;;;;2.80;2.60;;;;;;;25.25;53.27;96621.66;5091409;28;20638;-60
2021/06/27 09:09:14;;;;;;;3.28;2.30;;;;;;;25.41;51.67;96616.50;5100225;28;20233;-60
2021/06/27 09:11:57;;;;;;;2.55;2.35;;;;;;;25.92;51.17;96622.63;5057049;28;20193;-60
2021/06/27 09:14:34;;;;;;;2.70;2.50;;;;;;;25.90;50.69;96619.50;5093001;28;20199;-60
2021/06/27 09:17:22;;;;;;;2.63;2.42;;;;;;;25.54;50.64;96620.06;5097298;28;20185;-60
2021/06/27 09:19:57;;;;;;;2.65;2.47;;;;;;;25.53;51.19;96616.59;5079537;28;20671;-60
2021/06/27 09:22:28;;;;;;;2.63;2.42;;;;;;;25.67;51.21;96622.53;5102131;28;20200;-60
2021/06/27 09:25:10;;;;;;;2.72;2.53;;;;;;;25.99;50.69;96621.00;5107680;28;20255;-60
2021/06/27 09:27:37;;;;;;;2.60;2.40;;;;;;;25.65;50.03;96619.38;5104163;28;20181;-61
2021/06/27 09:30:13;;;;;;;2.83;2.33;;;;;;;25.20;51.46;96613.81;5100800;28;20274;-59
2021/06/27 09:32:50;;;;;;;2.70;2.50;;;;;;;25.34;51.84;96607.41;5096420;28;20185;-60
2021/06/27 09:35:37;;;;;;;2.80;2.60;;;;;;;25.14;51.04;96608.94;5107341;28;20176;-60
2021/06/27 09:38:25;;;;;;;2.60;2.40;;;;;;;25.21;52.08;96606.53;5102471;28;20226;-60
2021/06/27 09:40:53;;;;;;;2.40;2.30;;;;;;;25.27;50.89;96603.34;5103497;28;20576;-60
2021/06/27 09:43:20;;;;;;;2.70;2.50;;;;;;;25.41;51.66;96605.00;5101333;28;20220;-60
2021/06/27 09:45:47;;;;;;;2.35;2.25;;;;;;;25.56;51.68;96607.94;5103369;28;20212;-60
2021/06/27 09:48:13;;;;;;;2.38;2.28;;;;;;;25.50;50.02;96609.19;5101345;28;20195;-59
2021/06/27 09:50:39;;;;;;;2.45;2.30;;;;;;;25.51;50.77;96602.72;5100989;28;20204;-59
2021/06/27 09:53:04;;;;;;;2.30;2.20;;;;;;;25.71;50.36;96609.22;5106517;28;20184;-60
2021/06/27 09:55:30;;;;;;;2.38;2.25;;;;;;;25.63;49.36;96620.84;5100938;28;20192;-58
2021/06/27 09:58:15;;;;;;;2.63;2.17;;;;;;;25.51;50.68;96602.72;5108757;28;20192;-60
2021/06/27 10:00:40;;;;;;;4.50;4.13;;;;;;;25.88;51.38;96609.09;5083193;28;20186;-60
2021/06/27 10:03:08;;;;;;;139.00;125.72;;;;;;;26.39;50.91;96613.22;5113283;28;20536;-60
2021/06/27 10:05:34;;;;;;;9.95;6.75;;;;;;;26.98;47.88;96612.09;5112639;28;20180;-65
2021/06/27 10:07:59;;;;;;;14.55;13.40;;;;;;;27.14;47.72;96621.09;5094136;28;20191;-61
2021/06/27 10:10:25;;;;;;;4.28;3.97;;;;;;;26.81;46.53;96618.44;5109339;28;20189;-60
2021/06/27 10:12:51;;;;;;;2.35;2.20;;;;;;;26.70;46.23;96607.34;5102325;28;20191;-63
2021/06/27 10:15:16;;;;;;;2.28;2.17;;;;;;;26.70;46.15;96604.66;5093067;28;20544;-62
2021/06/27 10:17:43;;;;;;;2.10;2.00;;;;;;;26.58;45.46;96595.81;5105595;28;20642;-62
2021/06/27 10:20:10;;;;;;;1.88;1.70;;;;;;;26.34;44.77;96591.94;5094098;28;20205;-63
2021/06/27 10:22:36;;;;;;;1.80;1.70;;;;;;;26.28;44.94;96587.88;5095290;28;20184;-63
2021/06/27 10:25:05;;;;;;;1.90;1.80;;;;;;;26.54;44.68;96594.88;5107252;28;20184;-62
2021/06/27 10:27:32;;;;;;;2.05;1.95;;;;;;;27.14;43.62;96599.56;5097201;28;20181;-63
2021/06/27 10:30:00;;;;;;;1.90;1.80;;;;;;;27.92;42.38;96596.50;5109216;28;20176;-62
2021/06/27 10:32:26;;;;;;;2.00;1.83;;;;;;;28.30;41.54;96587.91;5092186;28;20640;-62
2021/06/27 10:34:54;;;;;;;2.10;1.90;;;;;;;28.33;40.85;96590.69;5106795;28;20268;-62
2021/06/27 10:37:43;;;;;;;1.80;1.70;;;;;;;28.83;39.98;96589.28;5106488;28;20187;-62
2021/06/27 10:40:12;;;;;;;2.05;1.95;;;;;;;29.46;39.41;96589.22;5096061;28;20196;-62
2021/06/27 10:42:50;;;;;;;2.10;2.00;;;;;;;29.73;38.72;96590.94;5105227;28;20219;-64
2021/06/27 10:45:21;;;;;;;1.90;1.80;;;;;;;29.28;38.95;96597.66;5106004;28;20195;-62
2021/06/27 10:47:47;;;;;;;1.80;1.70;;;;;;;28.59;40.73;96598.28;5090709;28;20264;-62
2021/06/27 10:50:14;;;;;;;3.33;2.03;;;;;;;28.11;41.66;96602.00;5094745;28;20286;-62
2021/06/27 10:52:52;;;;;;;1.90;1.80;;;;;;;27.81;41.41;96595.41;5096484;28;20549;-60
2021/06/27 10:55:27;;;;;;;4.45;2.00;;;;;;;27.59;41.74;96605.53;5108754;28;20187;-61
2021/06/27 10:57:54;;;;;;;2.00;1.90;;;;;;;27.64;42.43;96604.56;5099947;28;20574;-60
2021/06/27 11:00:21;;;;;;;1.92;1.83;;;;;;;27.95;42.47;96606.56;5096780;28;20215;-60
2021/06/27 11:02:46;;;;;;;2.00;1.90;;;;;;;28.47;41.78;96603.78;5107843;28;20187;-59
2021/06/27 11:05:28;;;;;;;2.03;1.83;;;;;;;28.25;41.81;96597.03;5098211;28;20192;-60
2021/06/27 11:07:54;;;;;;;2.00;1.90;;;;;;;28.41;40.97;96591.69;5100049;28;20668;-59
2021/06/27 11:10:19;;;;;;;2.40;2.30;;;;;;;28.20;41.82;96594.56;5107639;28;20199;-59
2021/06/27 11:13:00;;;;;;;2.17;2.08;;;;;;;27.70;42.21;96582.41;5092419;28;20207;-59
2021/06/27 11:15:28;;;;;;;2.10;2.00;;;;;;;27.49;42.80;96592.53;5095644;28;20184;-58
2021/06/27 11:17:58;;;;;;;1.80;1.70;;;;;;;27.04;41.37;96581.16;5095621;28;20258;-59
2021/06/27 11:20:27;;;;;;;2.95;2.20;;;;;;;27.16;43.27;96581.94;5108780;28;20183;-58
2021/06/27 11:22:55;;;;;;;2.10;2.00;;;;;;;27.23;44.21;96582.16;5098097;28;20172;-59
2021/06/27 11:25:47;;;;;;;2.05;1.95;;;;;;;27.39;42.49;96586.84;5103670;28;20279;-59
2021/06/27 11:28:19;;;;;;;2.05;1.95;;;;;;;27.29;43.30;96585.41;5103255;28;20181;-59
2021/06/27 11:31:14;;;;;;;1.75;1.65;;;;;;;27.79;41.15;96576.09;5099349;28;20185;-60
2021/06/27 11:33:39;;;;;;;1.80;1.70;;;;;;;27.87;41.59;96580.53;5076981;28;20208;-62